This is the latest recevied weather packets stored in our database for station/object N5ATR. If no packets are shown the sender has not sent any weather packets the latest 10 day(s).
| Time | Temp. | Humidity | Pressure | Rain* | Wind** | Luminosity | Snow |
|---|---|---|---|---|---|---|---|
| 1788672387 | 19.44° C | 44% | 1022.2 hPa | 0 mm | - | 0 W/m² | - |
| 1788672084 | 19.44° C | 44% | 1022.4 hPa | 0 mm | - | 0 W/m² | - |
| 1788671780 | 19.44° C | 45% | 1022.3 hPa | 0 mm | - | 0 W/m² | - |
| 1788671474 | 19.44° C | 46% | 1022.2 hPa | 0 mm | - | 0 W/m² | - |
| 1788671170 | 19.44° C | 47% | 1022.2 hPa | 0 mm | - | 0 W/m² | - |
| 1788670865 | 20° C | 47% | 1022.4 hPa | 0 mm | - | 0 W/m² | - |
| 1788670563 | 20° C | 46% | 1022.2 hPa | 0 mm | - | 0 W/m² | - |
| 1788670259 | 20.56° C | 44% | 1022.2 hPa | 0 mm | - | 0 W/m² | - |
| 1788669955 | 21.11° C | 43% | 1022 hPa | 0 mm | - | 0 W/m² | - |
| 1788669655 | 21.11° C | 43% | 1022 hPa | 0 mm | - | 0 W/m² | - |
| 1788669351 | 21.11° C | 44% | 1022.4 hPa | 0 mm | - | 0 W/m² | - |
| 1788669047 | 21.11° C | 44% | 1022.2 hPa | 0 mm | - | 0 W/m² | - |
| 1788668745 | 21.11° C | 44% | 1022.2 hPa | 0 mm | - | 0 W/m² | - |
| 1788668440 | 21.11° C | 44% | 1022.3 hPa | 0 mm | - | 0 W/m² | - |
| 1788668137 | 21.67° C | 44% | 1022.2 hPa | 0 mm | - | 0 W/m² | - |
| 1788667831 | 21.67° C | 43% | 1022.2 hPa | 0 mm | - | 0 W/m² | - |
| 1788667526 | 20.56° C | 45% | 1022.4 hPa | 0 mm | - | 0 W/m² | - |
| 1788667244 | 20° C | 49% | 1022.3 hPa | 0 mm | - | 0 W/m² | - |
| 1788666917 | 19.44° C | 54% | 1022.5 hPa | 0 mm | - | 0 W/m² | - |
| 1788666613 | 19.44° C | 55% | 1022.5 hPa | 0 mm | - | 0 W/m² | - |
| 1788666312 | 20° C | 54% | 1022.5 hPa | 0 mm | - | 0 W/m² | - |
| 1788666008 | 20° C | 55% | 1022.5 hPa | 0 mm | - | 0 W/m² | - |
| 1788665702 | 20° C | 54% | 1022.5 hPa | 0 mm | - | 0 W/m² | - |
| 1788665398 | 20° C | 54% | 1022.2 hPa | 0 mm | - | 0 W/m² | - |
| 1788665095 | 20° C | 53% | 1022.2 hPa | 0 mm | - | 0 W/m² | - |
* Rain latest hour (hover to see other rain measurements)
** Current wind speed in m/s (hover to see current wind gust speed)